createdAt,value
2023-01-25T00:00:16.037Z,9.15
2023-01-25T00:02:55.697Z,10.07
2023-01-25T00:05:42.757Z,11.75
2023-01-25T00:08:44.317Z,10.40
2023-01-25T00:11:16.737Z,11.10
2023-01-25T00:16:16.783Z,9.17
2023-01-25T00:18:53.431Z,10.95
2023-01-25T00:21:34.509Z,9.85
2023-01-25T00:24:18.395Z,8.48
2023-01-25T00:26:51.310Z,13.55
2023-01-25T00:29:29.172Z,10.30
2023-01-25T00:32:14.972Z,10.57
2023-01-25T00:34:50.806Z,11.45
2023-01-25T00:38:06.826Z,10.75
2023-01-25T00:40:46.978Z,9.13
2023-01-25T00:43:23.219Z,9.32
2023-01-25T00:45:59.098Z,8.07
2023-01-25T00:48:39.507Z,8.57
2023-01-25T00:51:20.989Z,9.37
2023-01-25T00:53:54.733Z,9.93
2023-01-25T00:56:49.086Z,10.17
2023-01-25T00:59:34.249Z,10.07
2023-01-25T01:02:09.376Z,8.77
2023-01-25T01:04:43.731Z,8.90
2023-01-25T01:07:25.511Z,9.00
2023-01-25T01:11:12.311Z,10.32
2023-01-25T01:13:07.253Z,9.02
2023-01-25T01:15:58.879Z,7.38
2023-01-25T01:18:37.501Z,10.10
2023-01-25T01:21:10.038Z,9.50
2023-01-25T01:23:49.071Z,9.30
2023-01-25T01:26:33.568Z,9.48
2023-01-25T01:29:02.251Z,8.88
2023-01-25T01:31:32.387Z,9.20
2023-01-25T01:34:16.006Z,9.90
2023-01-25T01:36:47.631Z,9.40
2023-01-25T01:39:38.286Z,8.70
2023-01-25T01:42:10.905Z,8.57
2023-01-25T01:45:18.931Z,9.90
2023-01-25T01:48:02.143Z,8.82
2023-01-25T01:50:38.468Z,9.45
2023-01-25T01:53:19.096Z,11.05
2023-01-25T01:56:04.471Z,10.20
2023-01-25T01:58:40.520Z,11.43
2023-01-25T02:01:22.807Z,11.10
2023-01-25T02:04:00.664Z,10.10
2023-01-25T02:06:37.084Z,10.13
2023-01-25T02:09:23.373Z,10.27
2023-01-25T02:12:18.603Z,8.37
2023-01-25T02:14:58.435Z,12.60
2023-01-25T02:17:43.506Z,11.55
2023-01-25T02:20:29.454Z,10.33
2023-01-25T02:23:16.703Z,11.50
2023-01-25T02:25:49.816Z,10.27
2023-01-25T02:28:34.517Z,10.00
2023-01-25T02:31:07.384Z,8.68
2023-01-25T02:33:40.017Z,10.07
2023-01-25T02:36:09.954Z,8.40
2023-01-25T02:38:46.464Z,9.00
2023-01-25T02:41:46.938Z,9.00
2023-01-25T02:47:10.768Z,8.07
2023-01-25T02:49:42.432Z,9.68
2023-01-25T02:52:19.181Z,9.03
2023-01-25T02:54:46.586Z,9.10
2023-01-25T02:57:16.844Z,8.55
2023-01-25T02:59:54.733Z,10.77
2023-01-25T03:02:26.880Z,10.50
2023-01-25T03:04:57.178Z,9.23
2023-01-25T03:07:28.887Z,9.75
2023-01-25T03:09:58.687Z,9.75
2023-01-25T03:12:29.247Z,9.75
2023-01-25T03:14:56.829Z,9.20
2023-01-25T03:17:25.274Z,8.90
2023-01-25T03:19:56.842Z,10.15
2023-01-25T03:22:29.660Z,7.68
2023-01-25T03:25:07.177Z,10.13
2023-01-25T03:27:43.774Z,10.20
2023-01-25T03:30:23.756Z,11.90
2023-01-25T03:32:58.619Z,11.80
2023-01-25T03:35:26.423Z,10.52
2023-01-25T03:38:02.781Z,12.00
2023-01-25T03:49:49.664Z,15.07
2023-01-25T03:53:43.087Z,14.10
2023-01-25T03:57:41.382Z,12.47
2023-01-25T04:04:02.519Z,18.40
2023-01-25T04:07:08.565Z,13.53
2023-01-25T04:10:18.774Z,15.60
2023-01-25T04:13:06.507Z,18.77
2023-01-25T04:16:10.597Z,16.45
2023-01-25T04:44:03.484Z,14.83
2023-01-25T04:51:29.510Z,12.97
2023-01-25T04:54:18.901Z,19.00
2023-01-25T04:57:24.679Z,14.47
2023-01-25T05:00:14.382Z,20.90
2023-01-25T05:03:00.801Z,20.93
2023-01-25T05:07:21.796Z,20.67
2023-01-25T05:09:28.166Z,18.33
2023-01-25T05:12:21.331Z,17.20
2023-01-25T05:19:10.993Z,16.07
2023-01-25T05:25:54.517Z,12.77
2023-01-25T05:28:52.272Z,15.43
2023-01-25T05:32:08.307Z,20.07
2023-01-25T06:16:00.013Z,18.52
2023-01-25T06:19:27.959Z,19.47
2023-01-25T06:22:26.855Z,18.73
2023-01-25T07:30:56.701Z,16.52
2023-01-25T07:49:36.455Z,20.53
2023-01-25T08:07:21.804Z,22.37
2023-01-25T08:21:14.771Z,21.67
2023-01-25T08:25:03.711Z,20.67
2023-01-25T08:28:09.879Z,16.87
2023-01-25T08:34:38.383Z,16.77
2023-01-25T08:55:07.151Z,15.97
2023-01-25T08:57:50.500Z,20.23
2023-01-25T09:01:28.375Z,22.60
2023-01-25T09:04:00.634Z,20.30
2023-01-25T09:06:54.087Z,21.42
2023-01-25T09:09:35.716Z,18.30
2023-01-25T09:12:07.518Z,22.43
2023-01-25T09:14:40.453Z,20.83
2023-01-25T09:17:09.893Z,21.23
2023-01-25T09:19:39.647Z,19.90
2023-01-25T09:22:07.199Z,16.33
2023-01-25T09:25:06.734Z,16.80
2023-01-25T09:27:34.241Z,15.97
2023-01-25T09:30:13.458Z,13.37
2023-01-25T09:32:54.147Z,19.90
2023-01-25T09:36:15.572Z,16.47
2023-01-25T09:38:47.578Z,17.87
2023-01-25T09:45:57.328Z,20.17
2023-01-25T09:49:08.293Z,28.08
2023-01-25T09:53:06.584Z,32.30
2023-01-25T09:56:09.497Z,34.57
2023-01-25T09:59:18.405Z,33.22
2023-01-25T10:02:28.617Z,27.43
2023-01-25T10:06:05.575Z,26.80
2023-01-25T10:09:37.284Z,27.87
2023-01-25T10:12:27.036Z,28.17
2023-01-25T10:19:06.377Z,23.27
2023-01-25T10:26:12.171Z,24.07
2023-01-25T10:31:33.658Z,27.43
2023-01-25T10:33:52.878Z,28.93
2023-01-25T10:39:46.600Z,35.17
2023-01-25T10:43:44.784Z,35.17
2023-01-25T10:46:25.166Z,27.20
2023-01-25T10:48:56.853Z,30.93
2023-01-25T10:51:35.494Z,30.35
2023-01-25T10:54:14.216Z,28.57
2023-01-25T10:56:47.888Z,30.77
2023-01-25T10:59:18.259Z,27.77
2023-01-25T11:01:50.873Z,34.87
2023-01-25T11:07:43.758Z,30.10
2023-01-25T11:10:51.855Z,34.07
2023-01-25T11:13:38.940Z,35.23
2023-01-25T11:16:29.909Z,35.23
2023-01-25T11:23:39.492Z,27.33
2023-01-25T11:26:13.632Z,29.93
2023-01-25T11:28:41.289Z,33.55
2023-01-25T11:31:21.280Z,30.63
2023-01-25T11:33:57.096Z,29.47
2023-01-25T11:36:39.363Z,35.77
2023-01-25T11:39:32.754Z,38.33
2023-01-25T11:42:07.705Z,35.60
2023-01-25T11:44:46.985Z,41.67
2023-01-25T11:47:33.249Z,41.50
2023-01-25T11:50:33.885Z,39.13
2023-01-25T11:53:11.943Z,41.40
2023-01-25T11:55:50.924Z,42.87
2023-01-25T11:58:37.074Z,41.73
2023-01-25T12:01:11.196Z,37.43
2023-01-25T12:03:54.962Z,36.37
2023-01-25T12:06:26.735Z,43.17
2023-01-25T12:09:20.492Z,38.60
2023-01-25T12:12:43.040Z,33.83
2023-01-25T12:15:40.307Z,36.07
2023-01-25T12:18:41.490Z,45.60
2023-01-25T12:21:36.987Z,46.17
2023-01-25T12:24:22.876Z,43.57
2023-01-25T12:27:23.992Z,40.10
2023-01-25T12:32:46.085Z,38.87
2023-01-25T12:36:11.093Z,34.78
2023-01-25T12:39:06.805Z,32.87
2023-01-25T12:41:44.951Z,33.77
2023-01-25T12:44:26.322Z,34.93
2023-01-25T12:47:33.309Z,34.60
2023-01-25T12:50:42.128Z,40.87
2023-01-25T12:53:27.678Z,42.03
2023-01-25T12:55:56.601Z,47.93
2023-01-25T12:58:38.509Z,44.77
2023-01-25T13:01:34.011Z,37.42
2023-01-25T13:04:47.307Z,39.57
2023-01-25T13:07:42.303Z,42.80
2023-01-25T13:10:13.924Z,38.60
2023-01-25T13:13:04.548Z,39.35
2023-01-25T13:15:50.561Z,47.33
2023-01-25T13:18:32.762Z,38.80
2023-01-25T13:21:03.880Z,41.80
2023-01-25T13:23:44.120Z,50.97
2023-01-25T13:26:29.282Z,57.03
2023-01-25T13:29:03.256Z,45.87
2023-01-25T13:31:51.988Z,43.77
2023-01-25T13:34:35.373Z,47.07
2023-01-25T13:37:31.697Z,39.80
2023-01-25T13:40:06.293Z,43.13
2023-01-25T13:42:37.297Z,45.67
2023-01-25T13:45:11.912Z,43.53
2023-01-25T13:47:40.947Z,47.30
2023-01-25T13:50:27.577Z,55.33
2023-01-25T13:55:59.049Z,44.20
2023-01-25T13:59:34.351Z,46.60
2023-01-25T14:02:02.875Z,45.37
2023-01-25T14:04:31.837Z,37.77
2023-01-25T14:07:21.595Z,37.53
2023-01-25T14:09:49.711Z,39.57
2023-01-25T14:12:43.902Z,47.13
2023-01-25T14:15:20.084Z,43.63
2023-01-25T14:18:03.911Z,35.80
2023-01-25T14:20:31.589Z,36.23
2023-01-25T14:23:05.810Z,39.03
2023-01-25T14:25:34.040Z,38.17
2023-01-25T14:28:02.587Z,49.27
2023-01-25T14:30:36.638Z,45.67
2023-01-25T14:33:31.068Z,37.93
2023-01-25T14:36:24.049Z,37.63
2023-01-25T14:38:52.544Z,30.90
2023-01-25T14:41:32.518Z,29.50
2023-01-25T14:44:20.370Z,33.20
2023-01-25T14:46:47.742Z,41.67
2023-01-25T14:49:28.605Z,38.80
2023-01-25T14:52:06.107Z,38.90
2023-01-25T14:54:36.105Z,42.63
2023-01-25T14:57:08.738Z,49.40
2023-01-25T14:59:41.991Z,48.90
2023-01-25T15:05:49.147Z,55.30
2023-01-25T15:08:29.228Z,52.63
2023-01-25T15:16:18.988Z,47.27
2023-01-25T15:19:22.636Z,47.93
2023-01-25T15:30:22.079Z,54.67
2023-01-25T15:32:49.917Z,59.13
2023-01-25T15:35:35.116Z,69.37
2023-01-25T15:46:20.191Z,49.13
2023-01-25T15:53:04.932Z,44.30
2023-01-25T15:56:22.220Z,41.67
2023-01-25T16:03:11.090Z,52.13
2023-01-25T16:09:52.788Z,59.67
2023-01-25T16:12:23.055Z,57.10
2023-01-25T16:22:58.272Z,40.63
2023-01-25T16:25:33.665Z,39.73
2023-01-25T16:28:36.200Z,49.80
2023-01-25T16:31:33.580Z,43.05
2023-01-25T16:34:07.390Z,46.13
2023-01-25T16:56:42.660Z,61.40
2023-01-25T16:59:11.202Z,57.67
2023-01-25T17:02:09.228Z,56.27
2023-01-25T17:10:18.145Z,55.07
2023-01-25T17:26:46.357Z,48.33
2023-01-25T17:29:44.378Z,42.67
2023-01-25T17:37:23.766Z,41.73
2023-01-25T17:40:52.467Z,48.83
2023-01-25T17:43:21.975Z,47.50
2023-01-25T17:53:00.998Z,45.53
2023-01-25T17:55:37.495Z,46.97
2023-01-25T17:58:05.815Z,44.67
2023-01-25T18:00:33.235Z,40.07
2023-01-25T18:03:00.496Z,51.10
2023-01-25T18:05:28.763Z,50.27
2023-01-25T18:08:03.348Z,45.47
2023-01-25T18:10:43.229Z,45.70
2023-01-25T18:13:10.489Z,41.70
2023-01-25T18:15:37.835Z,39.40
2023-01-25T18:18:05.003Z,38.43
2023-01-25T18:20:32.187Z,41.47
2023-01-25T18:23:02.506Z,44.13
2023-01-25T18:25:34.120Z,44.97
2023-01-25T18:28:04.479Z,41.30
2023-01-25T18:35:50.876Z,52.83
2023-01-25T18:38:58.324Z,48.50
2023-01-25T18:41:28.179Z,50.83
2023-01-25T18:43:56.738Z,39.10
2023-01-25T18:46:26.676Z,31.77
2023-01-25T18:48:53.834Z,32.73
2023-01-25T18:51:23.209Z,35.80
2023-01-25T18:53:51.262Z,31.50
2023-01-25T18:56:21.304Z,28.10
2023-01-25T18:58:48.688Z,28.30
2023-01-25T19:01:20.957Z,25.17
2023-01-25T19:03:49.571Z,26.83
2023-01-25T19:06:22.636Z,27.50
2023-01-25T19:08:55.633Z,24.57
2023-01-25T19:11:24.158Z,22.80
2023-01-25T19:13:54.166Z,23.90
2023-01-25T19:16:26.239Z,21.93
2023-01-25T19:18:55.052Z,29.40
2023-01-25T19:21:28.950Z,29.40
2023-01-25T19:24:02.437Z,30.17
2023-01-25T19:31:14.319Z,21.50
2023-01-25T19:59:26.157Z,32.00
2023-01-25T20:01:54.068Z,27.47
2023-01-25T20:04:28.754Z,30.47
2023-01-25T20:07:03.377Z,27.73
2023-01-25T20:09:30.948Z,30.17
2023-01-25T20:11:58.953Z,39.40
2023-01-25T20:14:33.016Z,39.40
2023-01-25T20:17:00.135Z,34.60
2023-01-25T20:19:27.357Z,44.93
2023-01-25T20:24:38.767Z,37.77
2023-01-25T20:27:07.608Z,36.70
2023-01-25T20:29:40.408Z,42.00
2023-01-25T20:32:20.032Z,37.50
2023-01-25T20:34:57.034Z,41.00
2023-01-25T20:37:26.731Z,34.80
2023-01-25T20:40:03.923Z,36.13
2023-01-25T20:46:27.281Z,40.60
2023-01-25T20:51:24.680Z,38.77
2023-01-25T20:53:54.799Z,36.67
2023-01-25T20:56:22.777Z,31.67
2023-01-25T20:58:50.844Z,31.90
2023-01-25T21:01:22.692Z,28.83
2023-01-25T21:03:50.373Z,34.33
2023-01-25T21:06:17.884Z,39.93
2023-01-25T21:08:53.137Z,44.97
2023-01-25T21:11:20.743Z,51.97
2023-01-25T21:13:48.427Z,43.90
2023-01-25T21:16:23.866Z,42.67
2023-01-25T21:18:59.465Z,44.50
2023-01-25T21:22:22.028Z,37.40
2023-01-25T21:24:59.232Z,36.60
2023-01-25T21:27:35.936Z,37.57
2023-01-25T21:30:06.056Z,52.37
2023-01-25T21:36:36.468Z,37.57
2023-01-25T21:39:04.012Z,36.77
2023-01-25T21:41:34.245Z,38.30
2023-01-25T21:44:21.203Z,40.80
2023-01-25T21:47:27.414Z,44.77
2023-01-25T21:50:01.184Z,55.80
2023-01-25T21:52:28.618Z,54.63
2023-01-25T21:55:18.329Z,54.43
2023-01-25T21:57:49.347Z,62.95
2023-01-25T22:00:20.616Z,65.50
2023-01-25T22:04:00.764Z,70.87
2023-01-25T22:06:40.555Z,61.37
2023-01-25T22:09:12.057Z,64.77
2023-01-25T22:11:39.480Z,69.27
2023-01-25T22:14:12.747Z,59.67
2023-01-25T22:16:39.815Z,54.23
2023-01-25T22:19:07.584Z,63.50
2023-01-25T22:21:35.040Z,49.17
2023-01-25T22:24:09.881Z,58.53
2023-01-25T22:26:50.663Z,61.90
2023-01-25T22:29:26.366Z,67.87
2023-01-25T22:31:56.866Z,59.33
2023-01-25T22:34:28.621Z,57.43
2023-01-25T22:36:56.134Z,50.08
2023-01-25T22:39:23.189Z,52.43
2023-01-25T22:41:50.444Z,64.27
2023-01-25T22:49:09.263Z,55.57
2023-01-25T22:51:36.349Z,56.07
2023-01-25T22:54:36.304Z,60.83
2023-01-25T22:58:15.257Z,51.63
2023-01-25T23:01:27.757Z,52.70
2023-01-25T23:04:14.168Z,50.03
2023-01-25T23:06:47.149Z,54.47
2023-01-25T23:09:20.274Z,55.50
2023-01-25T23:11:47.375Z,53.70
2023-01-25T23:14:52.454Z,65.47
2023-01-25T23:17:41.166Z,56.00
2023-01-25T23:20:12.985Z,50.50
2023-01-25T23:22:40.350Z,57.10
2023-01-25T23:25:09.050Z,56.70
2023-01-25T23:27:36.180Z,56.70
2023-01-25T23:30:07.078Z,75.47
2023-01-25T23:32:36.577Z,68.27
2023-01-25T23:35:03.987Z,64.93
2023-01-25T23:37:56.244Z,68.27
2023-01-25T23:40:24.746Z,42.72
2023-01-25T23:42:55.358Z,50.93
2023-01-25T23:45:22.681Z,56.03
2023-01-25T23:47:52.287Z,59.57
2023-01-25T23:50:19.716Z,56.63
2023-01-25T23:52:46.980Z,62.90
2023-01-25T23:55:14.287Z,52.07
2023-01-25T23:57:41.400Z,57.30
